Time;durP1;ratioP1;P1;durP2;ratioP2;P2;SDS_P1;SDS_P2;PMS_P1;PMS_P2;Temp;Humidity;BMP_temperature;BMP_pressure;BME280_temperature;BME280_humidity;BME280_pressure;Samples;Min_cycle;Max_cycle;Signal;HPM_P1;HPM_P2
2023/05/28 00:01:17;;;;;;;4.18;3.88;;;;;;;15.11;77.92;94814.13;5077488;28;20189;-66
2023/05/28 00:03:45;;;;;;;4.15;3.67;;;;;;;15.10;78.05;94818.06;5076317;28;20225;-67
2023/05/28 00:06:14;;;;;;;4.75;3.67;;;;;;;15.09;77.67;94814.50;5077234;28;20196;-67
2023/05/28 00:08:40;;;;;;;5.15;4.18;;;;;;;15.08;77.08;94829.56;5077373;28;20185;-66
2023/05/28 00:11:10;;;;;;;4.20;3.90;;;;;;;15.07;77.74;94825.22;5077085;28;20239;-66
2023/05/28 00:13:38;;;;;;;4.45;4.05;;;;;;;15.10;78.08;94809.72;5077025;28;20197;-66
2023/05/28 00:16:06;;;;;;;4.78;4.32;;;;;;;15.09;77.56;94831.16;5076817;28;20193;-66
2023/05/28 00:18:33;;;;;;;4.35;4.05;;;;;;;15.10;78.05;94827.19;5077026;28;20259;-66
2023/05/28 00:21:01;;;;;;;4.25;3.85;;;;;;;15.11;78.00;94830.78;5075889;28;20290;-66
2023/05/28 00:23:29;;;;;;;4.97;4.47;;;;;;;15.13;77.74;94831.19;5076538;28;20213;-66
2023/05/28 00:25:56;;;;;;;5.03;4.30;;;;;;;15.10;77.13;94827.19;5076992;28;20262;-66
2023/05/28 00:28:25;;;;;;;4.45;4.05;;;;;;;15.07;77.66;94825.22;5076002;28;20201;-66
2023/05/28 00:30:52;;;;;;;4.70;4.30;;;;;;;15.06;77.77;94815.25;5075798;28;20205;-67
2023/05/28 00:33:18;;;;;;;4.38;3.97;;;;;;;15.04;77.40;94805.75;5076667;28;20250;-67
2023/05/28 00:35:45;;;;;;;4.10;3.80;;;;;;;15.04;77.82;94811.31;5075619;28;20204;-67
2023/05/28 00:38:13;;;;;;;4.10;3.75;;;;;;;15.02;77.27;94803.34;5076540;28;20283;-67
2023/05/28 00:40:44;;;;;;;3.90;3.60;;;;;;;14.97;75.98;94805.69;5076564;28;20204;-67
2023/05/28 00:43:12;;;;;;;3.97;3.58;;;;;;;14.97;76.12;94803.72;5075648;28;20579;-67
2023/05/28 00:45:40;;;;;;;4.18;3.88;;;;;;;14.99;76.18;94803.31;5076428;28;20254;-67
2023/05/28 00:48:08;;;;;;;4.00;3.67;;;;;;;15.01;76.44;94812.06;5075465;28;20250;-67
2023/05/28 00:50:35;;;;;;;3.80;3.50;;;;;;;15.04;76.20;94800.97;5075117;28;20690;-67
2023/05/28 00:53:01;;;;;;;3.90;3.60;;;;;;;15.02;76.04;94792.22;5075603;28;20197;-67
2023/05/28 00:55:30;;;;;;;3.95;3.47;;;;;;;15.00;75.88;94799.38;5075699;28;20216;-67
2023/05/28 00:58:05;;;;;;;4.25;3.90;;;;;;;15.04;76.67;94797.41;5075896;28;20259;-66
2023/05/28 01:00:32;;;;;;;3.50;3.20;;;;;;;15.06;77.17;94798.59;5075674;28;20197;-66
2023/05/28 01:03:05;;;;;;;3.60;3.40;;;;;;;15.03;76.56;94799.41;5076297;28;20189;-66
2023/05/28 01:05:34;;;;;;;4.68;4.28;;;;;;;15.01;76.93;94807.31;5075611;28;20277;-66
2023/05/28 01:08:01;;;;;;;3.90;3.60;;;;;;;14.97;78.32;94805.69;5075863;28;20633;-66
2023/05/28 01:10:29;;;;;;;3.83;3.53;;;;;;;14.96;79.33;94787.44;5075492;28;20196;-66
2023/05/28 01:12:58;;;;;;;3.95;3.65;;;;;;;14.93;79.10;94791.78;5074970;28;20212;-66
2023/05/28 01:15:25;;;;;;;4.47;3.85;;;;;;;14.90;79.78;94790.59;5075799;28;20246;-66
2023/05/28 01:17:57;;;;;;;3.80;3.53;;;;;;;14.87;79.05;94785.00;5074727;28;20212;-67
2023/05/28 01:20:31;;;;;;;4.15;3.85;;;;;;;14.86;79.73;94795.31;5074864;28;20252;-67
2023/05/28 01:23:01;;;;;;;3.90;3.60;;;;;;;14.86;79.93;94781.44;5075040;28;20208;-66
2023/05/28 01:25:31;;;;;;;4.13;3.83;;;;;;;14.87;80.00;94779.44;5075842;28;20484;-66
2023/05/28 01:28:01;;;;;;;3.90;3.60;;;;;;;14.86;80.33;94767.56;5075350;28;20177;-66
2023/05/28 01:30:29;;;;;;;4.10;3.70;;;;;;;14.85;80.73;94768.75;5075007;28;20292;-66
2023/05/28 01:32:56;;;;;;;3.97;3.67;;;;;;;14.83;80.97;94765.53;5075206;28;20698;-66
2023/05/28 01:35:23;;;;;;;3.90;3.60;;;;;;;14.81;80.91;94764.34;5075777;28;20247;-66
2023/05/28 01:37:53;;;;;;;4.15;3.60;;;;;;;14.83;81.27;94765.53;5075524;28;20213;-66
2023/05/28 01:40:20;;;;;;;4.25;3.92;;;;;;;14.86;81.39;94773.09;5075320;28;20621;-66
2023/05/28 01:42:50;;;;;;;4.07;3.78;;;;;;;14.88;81.17;94781.03;5073893;28;20659;-66
2023/05/28 01:45:17;;;;;;;3.90;3.60;;;;;;;14.90;81.13;94773.13;5074429;28;20600;-66
2023/05/28 01:47:44;;;;;;;4.32;3.92;;;;;;;14.90;81.49;94771.16;5074469;28;20288;-66
2023/05/28 01:50:11;;;;;;;4.18;3.78;;;;;;;14.88;81.16;94770.72;5074602;28;20579;-66
2023/05/28 01:52:38;;;;;;;3.92;3.70;;;;;;;14.87;80.73;94769.13;5075408;28;20185;-66
2023/05/28 01:55:08;;;;;;;4.00;3.70;;;;;;;14.87;81.45;94771.13;5075075;28;20177;-66
2023/05/28 01:57:35;;;;;;;4.63;3.75;;;;;;;14.89;81.81;94763.22;5075215;28;20191;-66
2023/05/28 02:00:05;;;;;;;3.83;3.53;;;;;;;14.86;81.81;94762.00;5075302;28;20581;-66
2023/05/28 02:02:32;;;;;;;4.55;3.78;;;;;;;14.86;82.08;94764.78;5075084;28;20197;-66
2023/05/28 02:04:59;;;;;;;4.03;3.80;;;;;;;14.85;81.53;94765.97;5074264;28;20212;-66
2023/05/28 02:07:27;;;;;;;4.18;3.88;;;;;;;14.89;81.28;94771.53;5075031;28;20200;-66
2023/05/28 02:09:57;;;;;;;4.10;3.75;;;;;;;14.91;80.93;94763.59;5074282;28;20254;-66
2023/05/28 02:12:24;;;;;;;3.80;3.50;;;;;;;14.96;81.59;94765.22;5074121;28;20216;-66
2023/05/28 02:14:51;;;;;;;4.32;3.90;;;;;;;14.95;81.71;94763.63;5075284;28;20288;-66
2023/05/28 02:17:19;;;;;;;3.85;3.55;;;;;;;14.92;81.88;94760.47;5075038;28;20186;-66
2023/05/28 02:19:46;;;;;;;4.32;3.92;;;;;;;14.90;81.25;94762.03;5074326;28;20595;-66
2023/05/28 02:22:14;;;;;;;4.05;3.75;;;;;;;14.89;80.97;94768.78;5075367;28;20298;-66
2023/05/28 02:24:42;;;;;;;4.05;3.75;;;;;;;14.89;80.85;94777.09;5074099;28;20518;-67
2023/05/28 02:27:12;;;;;;;4.90;3.50;;;;;;;14.90;80.24;94781.47;5074981;28;20197;-66
2023/05/28 02:29:43;;;;;;;4.05;3.75;;;;;;;14.88;80.49;94769.94;5074040;28;20212;-66
2023/05/28 02:32:11;;;;;;;4.32;3.92;;;;;;;14.88;79.84;94786.59;5075306;28;20185;-66
2023/05/28 02:34:39;;;;;;;4.05;3.75;;;;;;;14.89;79.53;94774.31;5074367;28;20193;-66
2023/05/28 02:37:06;;;;;;;3.90;3.60;;;;;;;14.90;79.81;94768.38;5074258;28;20254;-67
2023/05/28 02:39:33;;;;;;;4.78;3.72;;;;;;;14.92;79.63;94777.13;5074531;28;20201;-66
2023/05/28 02:42:00;;;;;;;4.00;3.65;;;;;;;14.91;79.20;94777.50;5074497;28;20569;-66
2023/05/28 02:44:28;;;;;;;4.00;3.70;;;;;;;14.91;78.92;94778.28;5074927;28;20521;-66
2023/05/28 02:46:57;;;;;;;3.65;3.45;;;;;;;14.97;78.44;94775.16;5074774;28;20605;-67
2023/05/28 02:49:25;;;;;;;4.10;3.80;;;;;;;14.95;78.15;94764.41;5074519;28;20197;-66
2023/05/28 02:51:53;;;;;;;4.50;4.20;;;;;;;14.97;77.81;94767.63;5074193;28;20201;-66
2023/05/28 02:54:21;;;;;;;4.28;3.80;;;;;;;14.98;77.92;94771.19;5076307;28;20259;-66
2023/05/28 02:56:49;;;;;;;4.22;3.83;;;;;;;14.99;78.41;94781.91;5078704;28;20200;-66
2023/05/28 02:59:17;;;;;;;4.60;4.20;;;;;;;15.01;78.62;94781.53;5077588;28;20221;-66
2023/05/28 03:01:44;;;;;;;4.07;3.78;;;;;;;15.01;78.90;94782.31;5077151;28;20209;-66
2023/05/28 03:04:12;;;;;;;3.95;3.65;;;;;;;15.00;78.90;94771.59;5077319;28;20208;-66
2023/05/28 03:06:41;;;;;;;5.47;4.43;;;;;;;15.01;78.94;94773.97;5077495;28;20193;-66
2023/05/28 03:09:15;;;;;;;4.53;4.13;;;;;;;15.00;78.60;94780.72;5078613;28;20240;-66
2023/05/28 03:11:46;;;;;;;4.43;4.05;;;;;;;14.99;78.94;94767.22;5077475;28;20199;-66
2023/05/28 03:14:13;;;;;;;4.85;4.55;;;;;;;14.97;79.19;94773.16;5078894;28;20197;-66
2023/05/28 03:16:41;;;;;;;4.65;4.35;;;;;;;14.97;78.93;94773.16;5078070;28;20566;-66
2023/05/28 03:19:11;;;;;;;4.97;4.60;;;;;;;14.93;79.30;94770.38;5077193;28;20196;-66
2023/05/28 03:21:37;;;;;;;5.25;4.78;;;;;;;14.95;79.35;94777.50;5076867;28;20233;-67
2023/05/28 03:24:05;;;;;;;5.13;4.63;;;;;;;14.98;80.05;94776.75;5078080;28;20185;-67
2023/05/28 03:26:33;;;;;;;4.60;4.30;;;;;;;14.99;80.54;94776.34;5077101;28;20243;-67
2023/05/28 03:29:02;;;;;;;4.70;4.30;;;;;;;15.02;80.86;94783.91;5078020;28;20258;-67
2023/05/28 03:31:30;;;;;;;4.90;4.40;;;;;;;15.02;81.33;94777.56;5077563;28;20222;-69
2023/05/28 03:33:58;;;;;;;4.90;4.43;;;;;;;15.00;80.23;94777.16;5077883;28;20193;-68
2023/05/28 03:36:25;;;;;;;4.00;3.72;;;;;;;15.01;79.34;94781.53;5077611;28;20266;-67
2023/05/28 03:38:52;;;;;;;4.72;4.40;;;;;;;15.00;79.90;94777.94;5077866;28;20193;-67
2023/05/28 03:41:22;;;;;;;4.60;4.20;;;;;;;14.99;80.47;94779.13;5077594;28;20205;-67
2023/05/28 03:43:50;;;;;;;4.43;4.03;;;;;;;14.98;80.01;94782.28;5077605;28;20192;-67
2023/05/28 03:46:17;;;;;;;4.60;4.30;;;;;;;14.99;79.27;94775.53;5076602;28;20201;-67
2023/05/28 03:48:43;;;;;;;5.20;4.80;;;;;;;15.02;79.06;94774.78;5076785;28;20200;-67
2023/05/28 03:51:10;;;;;;;4.53;4.13;;;;;;;15.00;79.39;94775.19;5077547;28;20189;-66
2023/05/28 03:53:38;;;;;;;4.68;4.28;;;;;;;15.01;80.44;94771.19;5077462;28;20189;-66
2023/05/28 03:56:05;;;;;;;5.38;4.85;;;;;;;15.02;80.93;94775.56;5077016;28;20197;-66
2023/05/28 03:58:34;;;;;;;5.35;4.82;;;;;;;15.02;81.50;94774.78;5077582;28;20480;-66
2023/05/28 04:01:04;;;;;;;4.88;4.47;;;;;;;14.97;81.56;94775.94;5077241;28;20259;-66
2023/05/28 04:03:31;;;;;;;4.63;4.20;;;;;;;14.99;81.70;94781.91;5076445;28;20197;-66
2023/05/28 04:06:00;;;;;;;5.03;4.63;;;;;;;14.99;82.41;94779.13;5076428;28;20189;-66
2023/05/28 04:08:29;;;;;;;5.28;4.78;;;;;;;15.00;82.57;94780.72;5076760;28;20262;-66
2023/05/28 04:10:55;;;;;;;4.85;4.45;;;;;;;15.02;81.87;94780.31;5077106;28;20181;-66
2023/05/28 04:13:26;;;;;;;5.25;4.85;;;;;;;15.04;81.52;94778.75;5076984;28;20181;-66
2023/05/28 04:15:54;;;;;;;4.90;4.53;;;;;;;15.05;80.98;94777.56;5076842;28;20193;-66
2023/05/28 04:18:26;;;;;;;4.70;4.30;;;;;;;15.05;79.80;94782.34;5076560;28;20225;-66
2023/05/28 04:20:57;;;;;;;4.38;4.07;;;;;;;15.02;79.27;94778.34;5076771;28;20245;-66
2023/05/28 04:23:26;;;;;;;5.57;5.07;;;;;;;15.06;80.20;94784.72;5076323;28;20232;-66
2023/05/28 04:25:57;;;;;;;4.53;4.18;;;;;;;15.09;80.24;94786.72;5077151;28;20201;-66
2023/05/28 04:28:27;;;;;;;5.15;4.68;;;;;;;15.09;79.99;94792.28;5076340;28;20193;-66
2023/05/28 04:31:00;;;;;;;5.13;4.72;;;;;;;15.09;81.58;94788.69;5076462;28;20569;-66
2023/05/28 04:33:30;;;;;;;5.22;4.72;;;;;;;15.09;81.79;94783.16;5076842;28;20181;-66
2023/05/28 04:35:59;;;;;;;5.20;4.80;;;;;;;15.08;82.38;94792.66;5076308;28;20205;-66
2023/05/28 04:38:28;;;;;;;4.97;4.57;;;;;;;15.03;81.76;94785.50;5076183;28;20287;-66
2023/05/28 04:40:55;;;;;;;5.45;5.00;;;;;;;15.04;82.28;94787.09;5076557;28;20201;-67
2023/05/28 04:43:22;;;;;;;6.47;5.68;;;;;;;15.09;82.43;94797.81;5075643;28;20262;-68
2023/05/28 04:45:49;;;;;;;7.53;6.93;;;;;;;15.13;83.14;94800.63;5075393;28;20208;-68
2023/05/28 04:48:17;;;;;;;7.18;6.57;;;;;;;15.12;82.98;94785.16;5076496;28;20185;-68
2023/05/28 04:50:47;;;;;;;6.53;6.03;;;;;;;15.10;82.86;94788.31;5076376;28;20193;-68
2023/05/28 04:53:15;;;;;;;6.47;6.05;;;;;;;15.14;82.84;94791.91;5075629;28;20601;-68
2023/05/28 04:55:44;;;;;;;6.97;6.38;;;;;;;15.15;82.61;94796.28;5076239;28;20242;-67
2023/05/28 04:58:12;;;;;;;7.50;6.80;;;;;;;15.17;82.28;94802.22;5076050;28;20271;-69
2023/05/28 05:00:42;;;;;;;7.00;6.40;;;;;;;15.21;82.01;94799.47;5076292;28;20274;-69
2023/05/28 05:03:09;;;;;;;6.45;5.85;;;;;;;15.22;82.22;94801.09;5076116;28;20280;-68
2023/05/28 05:05:39;;;;;;;7.70;6.95;;;;;;;15.23;81.85;94791.56;5075985;28;20232;-68
2023/05/28 05:08:13;;;;;;;6.38;5.78;;;;;;;15.26;81.45;94793.56;5075458;28;20204;-68
2023/05/28 05:10:44;;;;;;;6.25;5.75;;;;;;;15.26;80.47;94799.13;5075034;28;20189;-68
2023/05/28 05:13:15;;;;;;;6.00;5.50;;;;;;;15.27;80.77;94797.91;5074945;28;20200;-68
2023/05/28 05:15:44;;;;;;;6.95;6.25;;;;;;;15.30;81.00;94799.13;5074833;28;20271;-68
2023/05/28 05:18:12;;;;;;;5.70;5.30;;;;;;;15.29;80.77;94794.78;5075225;28;20242;-68
2023/05/28 05:20:42;;;;;;;5.78;5.18;;;;;;;15.27;80.51;94797.91;5074516;28;20240;-68
2023/05/28 05:23:17;;;;;;;6.15;5.63;;;;;;;15.28;80.86;94788.38;5075826;28;20201;-69
2023/05/28 05:25:45;;;;;;;6.22;5.72;;;;;;;15.30;81.40;94791.59;5075654;28;20194;-69
2023/05/28 05:28:15;;;;;;;6.10;5.60;;;;;;;15.33;81.70;94779.69;5074796;28;20201;-68
2023/05/28 05:30:43;;;;;;;7.00;6.40;;;;;;;15.36;81.60;94786.47;5074548;28;20207;-68
2023/05/28 05:33:13;;;;;;;6.65;6.05;;;;;;;15.36;81.45;94787.25;5074555;28;20196;-69
2023/05/28 05:35:44;;;;;;;6.97;6.40;;;;;;;15.40;80.87;94787.28;5075199;28;20207;-68
2023/05/28 05:38:26;;;;;;;6.90;6.30;;;;;;;15.45;80.98;94786.88;5074734;28;20205;-68
2023/05/28 05:40:57;;;;;;;6.50;5.90;;;;;;;15.51;80.70;94793.66;5074380;28;20244;-69
2023/05/28 05:43:25;;;;;;;7.00;6.40;;;;;;;15.56;81.19;94790.50;5058286;28;20201;-68
2023/05/28 05:45:51;;;;;;;6.97;6.07;;;;;;;15.62;81.21;94797.28;5074150;28;20261;-68
2023/05/28 05:48:18;;;;;;;7.20;6.45;;;;;;;15.67;80.97;94795.34;5075621;28;20201;-68
2023/05/28 05:50:51;;;;;;;7.40;6.30;;;;;;;15.71;81.17;94787.78;5074229;28;20247;-68
2023/05/28 05:53:21;;;;;;;6.75;6.15;;;;;;;15.73;80.63;94796.56;5075053;28;20212;-68
2023/05/28 05:55:47;;;;;;;6.88;6.20;;;;;;;15.77;80.86;94786.22;5074370;28;20189;-68
2023/05/28 05:58:14;;;;;;;6.85;5.88;;;;;;;15.76;80.48;94785.44;5075459;28;20173;-68
2023/05/28 06:00:41;;;;;;;6.45;5.82;;;;;;;15.74;79.98;94793.38;5074236;28;20661;-68
2023/05/28 06:03:12;;;;;;;7.25;6.55;;;;;;;15.73;80.17;94789.00;5074898;28;20652;-67
2023/05/28 06:05:42;;;;;;;7.30;6.53;;;;;;;15.73;80.34;94785.44;5075041;28;20204;-67
2023/05/28 06:08:10;;;;;;;7.22;6.68;;;;;;;15.73;80.67;94793.78;5074283;28;20254;-68
2023/05/28 06:10:40;;;;;;;7.13;6.53;;;;;;;15.73;81.54;94794.56;5074318;28;20193;-68
2023/05/28 06:13:07;;;;;;;7.97;7.05;;;;;;;15.74;81.67;94803.69;5074380;28;20204;-67
2023/05/28 06:15:34;;;;;;;8.30;7.60;;;;;;;15.73;81.64;94797.34;5074122;28;20197;-67
2023/05/28 06:18:01;;;;;;;8.15;6.50;;;;;;;15.70;81.80;94802.91;5074334;28;20637;-68
2023/05/28 06:20:28;;;;;;;7.07;6.38;;;;;;;15.68;81.54;94805.25;5074022;28;20290;-67
2023/05/28 06:22:55;;;;;;;7.10;6.50;;;;;;;15.64;81.15;94808.78;5073850;28;20189;-67
2023/05/28 06:25:25;;;;;;;8.40;6.30;;;;;;;15.66;81.05;94807.66;5074943;28;20227;-67
2023/05/28 06:27:56;;;;;;;7.68;6.63;;;;;;;15.67;81.93;94796.13;5075502;28;20257;-67
2023/05/28 06:30:26;;;;;;;6.80;6.20;;;;;;;15.66;82.25;94810.44;5077839;28;20239;-67
2023/05/28 06:32:53;;;;;;;8.73;6.13;;;;;;;15.65;83.31;94809.59;5079005;28;20201;-67
2023/05/28 06:35:21;;;;;;;7.38;6.63;;;;;;;15.64;83.26;94811.56;5078128;28;20201;-68
2023/05/28 06:37:49;;;;;;;6.57;6.07;;;;;;;15.63;82.98;94809.19;5078963;28;20261;-68
2023/05/28 06:40:16;;;;;;;7.18;6.15;;;;;;;15.63;83.43;94814.75;5077924;28;20247;-67
2023/05/28 06:42:43;;;;;;;7.20;6.50;;;;;;;15.60;84.25;94813.53;5078780;28;20188;-67
2023/05/28 06:45:13;;;;;;;7.32;6.60;;;;;;;15.58;84.89;94813.16;5078588;28;20181;-67
2023/05/28 06:47:43;;;;;;;10.18;8.27;;;;;;;15.53;84.63;94816.28;5078516;28;20181;-67
2023/05/28 06:50:10;;;;;;;9.07;8.27;;;;;;;15.52;85.56;94817.50;5078340;28;20612;-67
2023/05/28 06:52:37;;;;;;;9.10;8.23;;;;;;;15.53;85.94;94813.50;5078496;28;20213;-67
2023/05/28 06:55:05;;;;;;;10.05;9.05;;;;;;;15.52;85.77;94817.50;5077614;28;20208;-68
2023/05/28 06:57:33;;;;;;;11.38;10.27;;;;;;;15.51;86.08;94815.91;5077977;28;20253;-68
2023/05/28 06:59:59;;;;;;;13.00;11.70;;;;;;;15.54;85.70;94814.31;5078228;28;20573;-68
2023/05/28 07:02:29;;;;;;;9.50;8.70;;;;;;;15.57;85.41;94814.31;5078093;28;20334;-68
2023/05/28 07:04:57;;;;;;;9.82;9.02;;;;;;;15.59;84.76;94819.50;5078776;28;20185;-68
2023/05/28 07:07:24;;;;;;;9.40;8.50;;;;;;;15.60;84.82;94819.09;5077427;28;20197;-68
2023/05/28 07:09:53;;;;;;;9.25;8.43;;;;;;;15.59;84.45;94816.72;5078539;28;20280;-68
2023/05/28 07:12:20;;;;;;;9.57;8.77;;;;;;;15.60;85.46;94816.31;5077298;28;20205;-68
2023/05/28 07:14:46;;;;;;;9.75;8.82;;;;;;;15.59;85.68;94816.72;5078203;28;20258;-68
2023/05/28 07:17:13;;;;;;;12.07;10.93;;;;;;;15.61;85.98;94817.13;5077296;28;20189;-67
2023/05/28 07:19:42;;;;;;;12.25;10.25;;;;;;;15.65;86.11;94812.38;5078153;28;20197;-67
2023/05/28 07:22:10;;;;;;;10.85;9.85;;;;;;;15.70;86.46;94811.22;5077562;28;20241;-67
2023/05/28 07:24:37;;;;;;;8.80;8.00;;;;;;;15.72;86.12;94809.63;5078079;28;20189;-67
2023/05/28 07:27:03;;;;;;;8.82;8.02;;;;;;;15.81;86.39;94812.06;5077944;28;20254;-67
2023/05/28 07:29:30;;;;;;;9.13;8.23;;;;;;;15.89;86.83;94803.34;5077659;28;20588;-67
2023/05/28 07:31:58;;;;;;;9.45;8.55;;;;;;;15.94;86.99;94802.19;5077960;28;20192;-67
2023/05/28 07:34:25;;;;;;;8.88;8.07;;;;;;;16.02;87.94;94806.56;5077923;28;20197;-69
2023/05/28 07:36:57;;;;;;;8.63;7.82;;;;;;;16.08;86.96;94801.38;5077755;28;20193;-67
2023/05/28 07:39:26;;;;;;;8.30;7.50;;;;;;;16.10;86.10;94804.59;5076498;28;20247;-67
2023/05/28 07:41:53;;;;;;;7.53;6.93;;;;;;;16.17;85.39;94798.25;5076722;28;20220;-67
2023/05/28 07:44:21;;;;;;;6.82;6.22;;;;;;;16.25;84.56;94797.03;5077760;28;20200;-67
2023/05/28 07:46:49;;;;;;;7.07;6.40;;;;;;;16.36;84.07;94795.84;5077621;28;20521;-67
2023/05/28 07:49:17;;;;;;;7.13;6.53;;;;;;;16.42;83.58;94787.91;5077810;28;20185;-67
2023/05/28 07:51:45;;;;;;;7.55;6.95;;;;;;;16.45;83.44;94789.91;5077551;28;20266;-68
2023/05/28 07:54:15;;;;;;;6.13;5.60;;;;;;;16.50;83.00;94794.28;5077494;28;20255;-67
2023/05/28 07:56:42;;;;;;;5.72;5.22;;;;;;;16.51;80.60;94793.09;5077200;28;20193;-67
2023/05/28 07:59:13;;;;;;;5.07;4.68;;;;;;;16.51;80.41;94781.94;5076803;28;20274;-67
2023/05/28 08:01:40;;;;;;;6.70;6.18;;;;;;;16.48;79.37;94791.88;5076260;28;20228;-67
2023/05/28 08:04:09;;;;;;;13.70;12.68;;;;;;;16.44;79.62;94793.06;5076364;28;20197;-67
2023/05/28 08:06:37;;;;;;;9.50;8.68;;;;;;;16.42;80.40;94790.69;5076989;28;20196;-67
2023/05/28 08:09:04;;;;;;;5.60;5.20;;;;;;;16.43;80.46;94794.28;5076278;28;20201;-67
2023/05/28 08:11:35;;;;;;;4.53;4.22;;;;;;;16.46;80.29;94791.50;5076021;28;20201;-67
2023/05/28 08:14:02;;;;;;;4.25;3.85;;;;;;;16.49;80.29;94789.91;5075827;28;20211;-67
2023/05/28 08:16:28;;;;;;;4.20;3.78;;;;;;;16.51;80.51;94791.09;5076108;28;20193;-67
2023/05/28 08:18:56;;;;;;;5.20;3.50;;;;;;;16.57;80.63;94800.63;5076466;28;20204;-67
2023/05/28 08:21:23;;;;;;;3.40;3.20;;;;;;;16.62;80.77;94796.66;5076032;28;20232;-68
2023/05/28 08:23:51;;;;;;;4.20;3.80;;;;;;;16.68;80.79;94788.72;5076021;28;20193;-67
2023/05/28 08:26:18;;;;;;;3.50;3.20;;;;;;;16.73;81.26;94782.72;5079880;28;20208;-68
2023/05/28 08:28:46;;;;;;;4.78;3.22;;;;;;;16.69;80.02;94791.09;5078095;28;20192;-69
2023/05/28 08:31:13;;;;;;;4.57;4.07;;;;;;;16.63;79.81;94787.13;5078008;28;20197;-71
2023/05/28 08:33:40;;;;;;;4.00;3.70;;;;;;;16.60;80.01;94794.28;5075853;28;20212;-72
2023/05/28 08:36:08;;;;;;;4.03;3.70;;;;;;;16.61;80.44;94798.66;5075520;28;20285;-72
2023/05/28 08:38:35;;;;;;;3.78;3.42;;;;;;;16.67;79.97;94796.28;5076321;28;20209;-72
2023/05/28 08:41:02;;;;;;;3.58;3.28;;;;;;;16.69;78.78;94791.09;5075720;28;20228;-73
2023/05/28 08:43:31;;;;;;;3.42;3.13;;;;;;;16.71;78.95;94797.06;5075286;28;20650;-71
2023/05/28 08:46:01;;;;;;;4.47;3.60;;;;;;;16.73;78.58;94797.44;5075284;28;20193;-72
2023/05/28 08:48:29;;;;;;;3.13;2.92;;;;;;;16.74;78.46;94792.69;5075514;28;20205;-71
2023/05/28 08:50:56;;;;;;;4.03;3.47;;;;;;;16.70;78.53;94801.03;5075234;28;20205;-71
2023/05/28 08:53:25;;;;;;;6.03;5.43;;;;;;;16.65;78.52;94803.41;5075430;28;20189;-72
2023/05/28 08:55:53;;;;;;;7.15;6.50;;;;;;;16.64;78.39;94799.06;5075747;28;20185;-71
2023/05/28 08:58:21;;;;;;;5.80;5.30;;;;;;;16.65;78.60;94807.00;5075349;28;20210;-71
2023/05/28 09:00:49;;;;;;;4.40;4.10;;;;;;;16.64;78.38;94805.41;5074858;28;20185;-71
2023/05/28 09:03:19;;;;;;;4.88;4.50;;;;;;;16.68;78.69;94788.72;5075883;28;20201;-71
2023/05/28 09:05:46;;;;;;;6.60;6.00;;;;;;;16.75;78.51;94785.94;5075228;28;20208;-71
2023/05/28 09:08:16;;;;;;;6.60;6.10;;;;;;;16.87;78.79;94787.50;5076258;28;20177;-72
2023/05/28 09:10:44;;;;;;;5.45;4.20;;;;;;;17.07;80.79;94785.91;5074837;28;20198;-71
2023/05/28 09:13:15;;;;;;;3.67;3.38;;;;;;;17.23;79.47;94777.09;5074627;28;20563;-72
2023/05/28 09:15:43;;;;;;;4.20;3.90;;;;;;;17.28;77.15;94783.06;5074849;28;20250;-71
2023/05/28 09:18:13;;;;;;;4.43;4.03;;;;;;;17.44;78.60;94774.22;5075287;28;20205;-71
2023/05/28 09:20:48;;;;;;;4.10;3.70;;;;;;;17.68;77.75;94780.09;5074414;28;20233;-71
2023/05/28 09:23:17;;;;;;;4.43;3.20;;;;;;;17.81;77.25;94781.25;5075112;28;20196;-72
2023/05/28 09:25:46;;;;;;;3.08;2.88;;;;;;;17.84;76.11;94790.81;5075090;28;20266;-71
2023/05/28 09:28:17;;;;;;;3.90;3.50;;;;;;;17.85;76.62;94779.25;5074869;28;20193;-71
2023/05/28 09:30:45;;;;;;;3.80;3.40;;;;;;;17.83;75.85;94781.66;5074638;28;20298;-72
2023/05/28 09:33:12;;;;;;;4.22;3.60;;;;;;;17.76;75.25;94782.47;5074593;28;20221;-71
2023/05/28 09:36:00;;;;;;;3.63;3.30;;;;;;;17.67;74.59;94786.88;5075577;28;20197;-71
2023/05/28 09:38:28;;;;;;;4.10;3.40;;;;;;;17.55;72.87;94788.13;5074766;28;20200;-71
2023/05/28 09:40:58;;;;;;;3.92;3.58;;;;;;;17.49;73.03;94784.94;5075390;28;20185;-71
2023/05/28 09:43:31;;;;;;;4.97;4.00;;;;;;;17.49;73.60;94789.75;5074760;28;20265;-70
2023/05/28 09:46:10;;;;;;;5.10;3.60;;;;;;;17.45;73.38;94786.16;5074255;28;20197;-71
2023/05/28 09:48:37;;;;;;;4.20;3.85;;;;;;;17.44;73.59;94795.75;5074214;28;20208;-72
2023/05/28 09:51:08;;;;;;;5.60;3.67;;;;;;;17.38;73.31;94788.97;5074506;28;20200;-72
2023/05/28 09:53:39;;;;;;;4.07;3.78;;;;;;;17.28;72.89;94794.22;5074663;28;20251;-71
2023/05/28 09:56:11;;;;;;;3.35;3.15;;;;;;;17.22;72.48;94800.59;5074529;28;20193;-71
2023/05/28 09:58:40;;;;;;;5.25;4.15;;;;;;;17.18;73.01;94806.16;5073964;28;20196;-72
2023/05/28 10:01:14;;;;;;;4.15;3.72;;;;;;;17.03;72.26;94796.22;5074526;28;20201;-71
2023/05/28 10:03:46;;;;;;;3.90;3.60;;;;;;;17.01;73.06;94802.22;5073450;28;20308;-71
2023/05/28 10:06:27;;;;;;;5.22;3.95;;;;;;;17.37;76.06;94793.78;5074440;28;20193;-71
2023/05/28 10:08:57;;;;;;;4.18;3.80;;;;;;;17.86;76.90;94783.59;5074213;28;20238;-71
2023/05/28 10:11:27;;;;;;;4.32;3.95;;;;;;;18.32;73.25;94792.91;5075415;28;20189;-70
2023/05/28 10:13:56;;;;;;;4.28;3.88;;;;;;;18.63;69.74;94793.88;5074305;28;20637;-71
2023/05/28 10:16:27;;;;;;;5.78;3.90;;;;;;;18.51;67.92;94792.34;5074119;28;20208;-71
2023/05/28 10:18:54;;;;;;;4.25;3.85;;;;;;;18.18;67.49;94788.22;5074119;28;20280;-71
2023/05/28 10:21:26;;;;;;;4.13;3.80;;;;;;;17.96;69.48;94791.13;5073625;28;20237;-71
2023/05/28 10:23:53;;;;;;;4.00;3.60;;;;;;;17.87;69.20;94793.59;5074086;28;20203;-71
2023/05/28 10:26:21;;;;;;;4.10;3.80;;;;;;;17.84;70.53;94796.41;5074273;28;20193;-71
2023/05/28 10:28:55;;;;;;;4.40;4.00;;;;;;;17.83;69.22;94798.41;5074093;28;20208;-71
2023/05/28 10:31:23;;;;;;;3.70;3.40;;;;;;;17.74;69.48;94790.41;5074643;28;20680;-71
2023/05/28 10:33:50;;;;;;;3.90;3.60;;;;;;;17.83;70.25;94783.63;5074015;28;20201;-72
2023/05/28 10:36:18;;;;;;;3.97;3.55;;;;;;;17.96;69.83;94774.41;5074613;28;20193;-71
2023/05/28 10:38:58;;;;;;;4.18;3.60;;;;;;;18.04;69.38;94778.72;5074018;28;20193;-72
2023/05/28 10:41:25;;;;;;;4.07;3.42;;;;;;;18.04;68.07;94786.31;5073870;28;20254;-71
2023/05/28 10:43:51;;;;;;;5.15;4.10;;;;;;;17.73;69.49;94771.31;5073464;28;20205;-71
2023/05/28 10:46:19;;;;;;;4.75;4.35;;;;;;;17.70;69.05;94781.28;5074801;28;20197;-71
2023/05/28 10:49:11;;;;;;;4.75;4.35;;;;;;;17.54;69.84;94765.03;5073924;28;20279;-71
2023/05/28 10:52:02;;;;;;;5.22;4.72;;;;;;;17.49;69.07;94775.78;5074911;28;20193;-71
2023/05/28 10:54:45;;;;;;;7.03;4.70;;;;;;;17.38;69.00;94767.47;5054437;28;20286;-71
2023/05/28 10:57:14;;;;;;;6.40;4.85;;;;;;;17.36;70.21;94766.28;5073834;28;20232;-71
2023/05/28 10:59:45;;;;;;;4.82;4.43;;;;;;;17.22;68.87;94770.72;5074843;28;20196;-72
2023/05/28 11:02:12;;;;;;;8.20;7.40;;;;;;;17.23;69.82;94768.72;5073576;28;20282;-71
2023/05/28 11:04:40;;;;;;;6.05;5.55;;;;;;;17.35;70.54;94761.91;5073876;28;20254;-71
2023/05/28 11:07:08;;;;;;;5.68;5.07;;;;;;;17.57;69.92;94763.41;5074151;28;20236;-71
2023/05/28 11:09:35;;;;;;;6.13;5.57;;;;;;;17.73;69.44;94752.59;5073433;28;20201;-71
2023/05/28 11:12:06;;;;;;;4.93;4.53;;;;;;;17.70;66.95;94764.53;5073576;28;20201;-71
2023/05/28 11:14:37;;;;;;;5.35;4.72;;;;;;;17.63;66.65;94759.00;5073929;28;20251;-71
2023/05/28 11:17:11;;;;;;;5.43;4.90;;;;;;;17.62;67.95;94756.63;5077382;28;20201;-71
2023/05/28 11:19:42;;;;;;;6.13;5.32;;;;;;;17.69;68.16;94751.81;5077077;28;20201;-70
2023/05/28 11:22:09;;;;;;;5.75;5.32;;;;;;;17.65;68.28;94750.25;5076674;28;20240;-70
2023/05/28 11:24:51;;;;;;;6.22;5.63;;;;;;;17.86;69.99;94744.56;5077080;28;20205;-71
2023/05/28 11:27:19;;;;;;;7.13;5.82;;;;;;;18.34;67.89;94752.22;5076819;28;20189;-71
2023/05/28 11:29:46;;;;;;;6.85;6.18;;;;;;;18.71;66.21;94754.31;5076809;28;20227;-71
2023/05/28 11:32:13;;;;;;;6.97;6.38;;;;;;;18.95;65.72;94754.47;5076573;28;20200;-71
2023/05/28 11:34:42;;;;;;;7.18;6.47;;;;;;;18.93;64.02;94754.13;5077122;28;20197;-71
2023/05/28 11:37:09;;;;;;;6.20;5.70;;;;;;;18.73;65.72;94751.09;5077425;28;20613;-70
2023/05/28 11:39:36;;;;;;;5.82;5.32;;;;;;;18.79;64.43;94755.06;5076666;28;20197;-70
2023/05/28 11:42:03;;;;;;;6.13;5.63;;;;;;;18.60;64.61;94748.00;5076622;28;20491;-70